Time;durP1;ratioP1;P1;durP2;ratioP2;P2;SDS_P1;SDS_P2;PMS_P1;PMS_P2;Temp;Humidity;BMP_temperature;BMP_pressure;BME280_temperature;BME280_humidity;BME280_pressure;Samples;Min_cycle;Max_cycle;Signal;HPM_P1;HPM_P2
2023/02/04 00:00:47;;;;;;;2.08;1.50;;;8.40;60.20;;;3.76;97.17;96977.47;5003852;28;20029;-50
2023/02/04 00:03:16;;;;;;;5.70;1.48;;;8.40;60.40;;;3.75;96.94;96983.75;5004451;28;20029;-48
2023/02/04 00:05:45;;;;;;;5.78;1.80;;;8.30;60.50;;;3.77;97.71;96987.03;4996741;28;20032;-49
2023/02/04 00:08:11;;;;;;;5.38;1.77;;;8.30;60.60;;;3.74;97.99;96980.31;5018660;28;20025;-52
2023/02/04 00:10:38;;;;;;;2.13;1.80;;;8.30;60.80;;;3.70;98.08;96973.78;5002773;28;20239;-49
2023/02/04 00:13:07;;;;;;;4.10;1.55;;;8.30;61.00;;;3.70;98.34;96982.50;4999619;28;20052;-49
2023/02/04 00:15:33;;;;;;;2.67;1.58;;;8.30;61.20;;;3.72;98.68;96988.38;4993270;28;20553;-52
2023/02/04 00:17:59;;;;;;;6.50;2.45;;;8.30;61.30;;;3.75;99.01;96997.75;5009540;28;20025;-51
2023/02/04 00:20:25;;;;;;;2.83;1.75;;;8.30;61.50;;;3.72;98.76;96993.66;5018572;28;20038;-55
2023/02/04 00:22:51;;;;;;;3.35;1.70;;;8.30;61.50;;;3.74;99.14;96990.03;5003146;28;20021;-52
2023/02/04 00:25:20;;;;;;;2.75;1.73;;;8.30;61.60;;;3.72;99.51;96995.47;4993886;28;20100;-50
2023/02/04 00:27:53;;;;;;;3.60;1.85;;;8.30;61.80;;;3.71;100.00;96989.41;4992429;28;20021;-52
2023/02/04 00:30:20;;;;;;;3.20;1.90;;;8.30;62.20;;;3.70;100.00;96986.97;5004404;28;20029;-51
2023/02/04 00:32:53;;;;;;;4.63;2.33;;;8.30;62.80;;;3.68;100.00;96988.97;5000802;28;20383;-51
2023/02/04 00:35:23;;;;;;;5.68;1.75;;;8.30;62.20;;;3.65;100.00;96990.16;5025994;28;20110;-50
2023/02/04 00:37:53;;;;;;;4.43;1.85;;;8.30;62.30;;;3.65;100.00;96984.88;5009972;28;20095;-53
2023/02/04 00:40:19;;;;;;;5.20;2.10;;;8.30;62.40;;;3.62;100.00;96979.97;4999289;28;20624;-49
2023/02/04 00:42:45;;;;;;;4.07;2.30;;;8.30;62.50;;;3.63;100.00;96976.34;4974953;28;20030;-49
2023/02/04 00:45:12;;;;;;;4.28;2.38;;;8.20;62.60;;;3.58;100.00;96965.56;5000366;28;20017;-52
2023/02/04 00:47:41;;;;;;;4.63;2.50;;;8.30;62.90;;;3.53;100.00;96964.47;5004304;28;20029;-50
2023/02/04 00:50:19;;;;;;;3.80;2.28;;;8.20;63.10;;;3.48;100.00;96967.69;4990895;28;20368;-49
2023/02/04 00:52:48;;;;;;;3.10;2.30;;;8.20;63.40;;;3.51;100.00;96969.94;4997057;28;20029;-52
2023/02/04 00:55:16;;;;;;;5.35;2.08;;;8.20;63.40;;;3.57;100.00;96971.81;4983054;28;20072;-55
2023/02/04 00:57:46;;;;;;;3.75;2.10;;;8.20;63.50;;;3.53;100.00;96972.38;5001253;28;20207;-56
2023/02/04 01:00:15;;;;;;;2.88;1.83;;;8.10;63.60;;;3.51;100.00;96972.56;5001494;28;20044;-50
2023/02/04 01:02:50;;;;;;;4.72;2.53;;;8.10;63.60;;;3.52;100.00;96963.66;5013424;28;20439;-50
2023/02/04 01:05:18;;;;;;;2.95;2.10;;;8.10;63.80;;;3.48;100.00;96971.13;5003202;28;20126;-53
2023/02/04 01:07:47;;;;;;;4.70;2.50;;;8.10;63.90;;;3.48;100.00;96973.75;4997128;28;20324;-51
2023/02/04 01:10:14;;;;;;;5.93;3.20;;;8.10;63.90;;;3.47;100.00;96976.56;5012478;28;20453;-55
2023/02/04 01:12:40;;;;;;;4.60;2.47;;;8.10;64.00;;;3.47;100.00;96977.38;5004043;28;20498;-55
2023/02/04 01:15:25;;;;;;;3.63;2.25;;;8.10;64.00;;;3.42;100.00;96974.50;5020206;28;20025;-55
2023/02/04 01:17:51;;;;;;;5.03;2.40;;;8.10;64.20;;;3.46;100.00;96980.22;5020618;28;20037;-55
2023/02/04 01:20:20;;;;;;;4.97;2.50;;;8.10;64.10;;;3.41;100.00;96985.22;4996699;28;20025;-53
2023/02/04 01:22:49;;;;;;;5.93;2.65;;;8.10;64.30;;;3.43;100.00;96984.03;5021490;28;20022;-54
2023/02/04 01:25:15;;;;;;;4.80;2.58;;;8.10;64.20;;;3.42;100.00;96992.94;4999304;28;20049;-56
2023/02/04 01:27:42;;;;;;;5.18;3.25;;;8.10;64.30;;;3.39;100.00;96992.50;5009543;28;20040;-52
2023/02/04 01:30:09;;;;;;;5.15;3.05;;;8.10;64.30;;;3.35;100.00;96992.03;4996116;28;20017;-52
2023/02/04 01:32:35;;;;;;;5.95;2.80;;;8.10;64.40;;;3.33;100.00;96991.41;4997286;28;20017;-52
2023/02/04 01:35:02;;;;;;;6.10;3.55;;;8.10;64.40;;;3.31;100.00;96985.50;4976571;28;20026;-50
2023/02/04 01:37:28;;;;;;;6.18;3.38;;;8.10;64.60;;;3.37;100.00;96986.59;5017066;28;20245;-49
2023/02/04 01:39:54;;;;;;;4.07;3.00;;;8.00;64.60;;;3.38;100.00;96981.13;5002440;28;20106;-51
2023/02/04 01:42:20;;;;;;;4.90;3.35;;;8.10;64.70;;;3.36;100.00;96984.97;4991094;28;20039;-47
2023/02/04 01:44:55;;;;;;;5.47;3.60;;;8.00;64.70;;;3.38;100.00;96996.13;4984750;28;20025;-47
2023/02/04 01:47:25;;;;;;;6.00;3.55;;;8.10;64.90;;;3.39;100.00;96982.78;4978194;28;20032;-49
2023/02/04 01:49:55;;;;;;;6.30;3.58;;;8.10;64.90;;;3.34;100.00;96979.06;5006355;28;20029;-52
2023/02/04 01:52:23;;;;;;;5.40;3.75;;;8.10;65.00;;;3.30;100.00;96978.63;4988450;28;20408;-52
2023/02/04 01:54:52;;;;;;;7.85;3.85;;;8.10;65.00;;;3.37;100.00;96982.13;4995124;28;20511;-47
2023/02/04 01:57:18;;;;;;;7.20;3.42;;;8.10;65.00;;;3.34;100.00;96985.13;5008554;28;20025;-52
2023/02/04 01:59:54;;;;;;;10.07;4.20;;;8.00;65.00;;;3.35;100.00;96978.03;4998320;28;20364;-47
2023/02/04 02:02:49;;;;;;;6.80;3.92;;;8.10;65.20;;;3.37;100.00;96971.59;5005413;28;20029;-52
2023/02/04 02:05:50;;;;;;;6.55;3.75;;;8.10;65.20;;;3.38;100.00;96973.22;5006146;28;20395;-49
2023/02/04 02:08:17;;;;;;;5.63;3.60;;;8.10;66.10;;;3.39;100.00;96968.78;5019805;28;20119;-48
2023/02/04 02:10:48;;;;;;;6.30;4.07;;;8.10;65.30;;;3.40;100.00;96965.97;4983743;28;20511;-51
2023/02/04 02:13:18;;;;;;;8.50;3.92;;;8.10;65.40;;;3.41;100.00;96964.94;4997552;28;20098;-49
2023/02/04 02:15:46;;;;;;;8.45;4.00;;;8.10;66.10;;;3.45;100.00;96965.41;5008027;28;20043;-51
2023/02/04 02:18:15;;;;;;;6.55;3.85;;;8.10;65.30;;;3.46;100.00;96967.03;5006620;28;20029;-52
2023/02/04 02:20:45;;;;;;;7.13;3.72;;;8.10;65.40;;;3.50;100.00;96960.38;4998528;28;20033;-48
2023/02/04 02:25:47;;;;;;;6.45;3.88;;;8.20;65.50;;;3.48;100.00;96957.16;4948505;28;20057;-56
2023/02/04 02:28:31;;;;;;;5.90;4.00;;;8.20;65.40;;;3.51;100.00;96962.03;4935587;28;20376;-54
2023/02/04 02:30:57;;;;;;;6.63;3.65;;;8.20;65.40;;;3.53;100.00;96961.84;4936963;28;20034;-55
2023/02/04 02:33:25;;;;;;;9.57;3.90;;;8.20;65.40;;;3.55;100.00;96958.03;4952380;28;20469;-54
2023/02/04 02:35:56;;;;;;;9.18;4.22;;;8.20;65.40;;;3.54;100.00;96953.75;4938103;28;20118;-55
2023/02/04 02:38:25;;;;;;;7.93;3.55;;;8.30;65.60;;;3.54;100.00;96958.19;4953836;28;20030;-53
2023/02/04 02:40:53;;;;;;;6.72;4.18;;;8.30;65.60;;;3.57;100.00;96955.19;4936928;28;20477;-52
2023/02/04 02:43:28;;;;;;;5.65;4.18;;;8.30;65.50;;;3.49;100.00;96948.22;4951990;28;20022;-55
2023/02/04 02:45:59;;;;;;;7.13;3.60;;;8.30;65.70;;;3.54;100.00;96948.50;4953344;28;20034;-52
2023/02/04 02:48:26;;;;;;;10.02;4.88;;;8.30;65.70;;;3.54;100.00;96948.50;4944430;28;20054;-55
2023/02/04 02:50:55;;;;;;;9.68;3.80;;;8.30;65.70;;;3.57;100.00;96950.72;4937152;28;20033;-55
2023/02/04 02:53:24;;;;;;;7.47;4.28;;;8.30;65.70;;;3.57;100.00;96944.66;4937823;28;20026;-53
2023/02/04 02:55:53;;;;;;;6.68;3.67;;;8.30;65.80;;;3.62;100.00;96944.91;4949158;28;20816;-53
2023/02/04 02:58:37;;;;;;;6.50;3.80;;;8.30;65.80;;;3.63;100.00;96936.81;4946462;28;20469;-54
2023/02/04 03:01:09;;;;;;;6.60;3.65;;;8.30;65.90;;;3.63;100.00;96939.44;4936790;28;20077;-52
2023/02/04 03:03:52;;;;;;;6.85;3.95;;;8.30;65.80;;;3.65;100.00;96945.34;4951523;28;20037;-57
2023/02/04 03:06:25;;;;;;;5.80;3.35;;;8.40;66.00;;;3.66;100.00;96948.78;4953829;28;20042;-53
2023/02/04 03:08:56;;;;;;;4.70;3.53;;;8.30;65.90;;;3.69;100.00;96954.50;4937275;28;20117;-51
2023/02/04 03:11:25;;;;;;;5.22;3.38;;;8.40;66.00;;;3.72;100.00;96956.75;4953633;28;20038;-55
2023/02/04 03:13:52;;;;;;;5.32;3.15;;;8.40;65.90;;;3.77;100.00;96960.69;4939017;28;20089;-53
2023/02/04 03:16:24;;;;;;;11.35;3.70;;;8.40;65.90;;;3.76;100.00;96953.75;4939538;28;20061;-53
2023/02/04 03:18:58;;;;;;;5.25;3.17;;;8.40;66.00;;;3.79;100.00;96967.41;4951993;28;20035;-54
2023/02/04 03:21:24;;;;;;;5.22;3.20;;;8.50;65.90;;;3.76;100.00;96959.88;4936883;28;20050;-56
2023/02/04 03:23:50;;;;;;;5.40;3.67;;;8.40;65.80;;;3.76;100.00;96962.50;4926197;28;20125;-51
2023/02/04 03:26:16;;;;;;;4.45;3.25;;;8.50;65.90;;;3.73;100.00;96954.97;4951232;28;20061;-55
2023/02/04 03:28:48;;;;;;;7.63;3.35;;;8.50;65.90;;;3.71;100.00;96962.25;4952890;28;20453;-54
2023/02/04 03:31:14;;;;;;;4.70;3.58;;;8.50;66.00;;;3.73;100.00;96962.88;4950923;28;20039;-51
2023/02/04 03:33:41;;;;;;;5.22;3.33;;;8.50;65.90;;;3.76;100.00;96965.13;4967403;28;20027;-51
2023/02/04 03:36:13;;;;;;;5.28;3.42;;;8.50;65.90;;;3.76;100.00;96969.56;4935164;28;20030;-53
2023/02/04 03:38:53;;;;;;;2.70;2.38;;;8.50;65.90;;;3.76;100.00;96965.13;4949206;28;20031;-51
2023/02/04 03:41:19;;;;;;;4.95;3.13;;;8.50;65.80;;;3.77;100.00;96971.22;4967759;28;20026;-53
2023/02/04 03:43:55;;;;;;;5.40;3.70;;;8.50;65.80;;;3.79;100.00;96971.84;4967410;28;20015;-54
2023/02/04 03:46:30;;;;;;;5.28;3.33;;;8.60;66.00;;;3.83;100.00;96970.47;4933398;29;20035;-53
2023/02/04 03:48:56;;;;;;;5.18;2.97;;;8.60;66.00;;;3.84;100.00;96966.81;4947389;28;20031;-57
2023/02/04 03:51:21;;;;;;;5.38;3.47;;;8.60;66.00;;;3.85;100.00;96969.25;4951963;28;20033;-51
2023/02/04 03:53:53;;;;;;;7.40;5.07;;;8.60;66.00;;;3.86;100.00;96968.28;4953460;28;20049;-52
2023/02/04 03:56:19;;;;;;;4.95;3.78;;;8.60;66.10;;;3.82;100.00;96969.63;4952863;28;20026;-51
2023/02/04 03:58:51;;;;;;;4.40;3.03;;;8.60;66.10;;;3.87;100.00;96969.88;4952333;28;20092;-53
2023/02/04 04:01:17;;;;;;;6.68;3.58;;;8.60;66.10;;;3.93;100.00;96973.59;4959825;28;20052;-55
2023/02/04 04:03:43;;;;;;;6.30;3.42;;;8.70;66.20;;;3.94;100.00;96967.31;4948865;28;20062;-51
2023/02/04 04:06:10;;;;;;;5.32;3.65;;;8.60;66.10;;;3.94;100.00;96964.69;4949996;28;20034;-51
2023/02/04 04:08:37;;;;;;;6.47;3.38;;;8.60;66.10;;;3.93;100.00;96970.97;4966960;28;20077;-54
2023/02/04 04:11:06;;;;;;;10.43;4.13;;;8.70;66.20;;;3.93;100.00;96970.97;4952011;28;20030;-52
2023/02/04 04:13:32;;;;;;;5.65;3.45;;;8.70;66.20;;;3.97;100.00;96966.13;4949544;28;20027;-52
2023/02/04 04:15:58;;;;;;;8.00;3.60;;;8.70;66.20;;;3.96;100.00;96970.59;4952088;28;20039;-53
2023/02/04 04:18:28;;;;;;;5.25;3.60;;;8.70;66.20;;;3.96;100.00;96965.31;4949903;28;20077;-57
2023/02/04 04:20:54;;;;;;;8.00;3.55;;;8.70;66.20;;;3.99;100.00;96974.69;4941260;28;20026;-57
2023/02/04 04:23:20;;;;;;;5.78;3.33;;;8.70;66.20;;;3.97;100.00;96969.56;4965751;28;20030;-54
2023/02/04 04:25:46;;;;;;;6.68;3.38;;;8.70;66.30;;;3.97;100.00;96969.56;4920195;29;20370;-52
2023/02/04 04:28:11;;;;;;;6.13;3.70;;;8.70;66.20;;;3.96;100.00;96964.50;4915902;29;20023;-53
2023/02/04 04:30:40;;;;;;;7.30;3.90;;;8.70;66.20;;;3.97;100.00;96963.50;4930444;29;20039;-55
2023/02/04 04:33:17;;;;;;;6.43;3.80;;;8.70;66.30;;;3.98;100.00;96951.94;4915465;29;20034;-52
2023/02/04 04:35:43;;;;;;;6.07;3.53;;;8.70;66.40;;;4.01;100.00;96970.00;4931138;29;20135;-53
2023/02/04 04:38:15;;;;;;;7.00;4.10;;;8.70;66.40;;;4.00;100.00;96971.84;4931084;28;20503;-53
2023/02/04 04:40:44;;;;;;;4.78;3.60;;;8.70;66.50;;;4.00;100.00;96958.66;4921199;29;20474;-55
2023/02/04 04:43:10;;;;;;;6.30;3.60;;;8.80;66.50;;;4.01;100.00;96959.47;4913640;29;20454;-57
2023/02/04 04:45:36;;;;;;;4.28;3.08;;;8.80;66.50;;;4.01;100.00;96959.47;4931110;29;20045;-57
2023/02/04 04:48:02;;;;;;;9.80;3.38;;;8.80;66.40;;;4.00;100.00;96961.28;4930574;29;20089;-56
2023/02/04 04:50:30;;;;;;;4.47;2.80;;;8.80;66.40;;;3.99;100.00;96954.41;4931519;29;20180;-56
2023/02/04 04:52:59;;;;;;;5.32;3.95;;;8.80;66.50;;;4.01;100.00;96960.31;4916447;29;20034;-55
2023/02/04 04:55:25;;;;;;;7.22;3.53;;;8.80;66.60;;;4.01;100.00;96960.31;4927395;29;20058;-54
2023/02/04 04:57:51;;;;;;;6.10;3.55;;;8.80;66.50;;;4.00;100.00;96960.47;4932075;29;20027;-55
2023/02/04 05:00:20;;;;;;;4.80;3.22;;;8.80;66.60;;;4.01;100.00;96955.03;4929295;29;20119;-51
2023/02/04 05:02:54;;;;;;;6.78;3.25;;;8.80;66.60;;;4.03;100.00;96960.91;4929272;29;20029;-54
2023/02/04 05:05:24;;;;;;;5.18;2.65;;;8.80;66.60;;;4.05;100.00;96958.91;4914525;29;20061;-53
2023/02/04 05:07:53;;;;;;;4.45;2.67;;;8.80;66.60;;;4.07;100.00;96958.72;4927680;29;20653;-53
2023/02/04 05:10:22;;;;;;;4.60;3.10;;;8.80;66.70;;;4.07;100.00;96962.16;4931712;29;20027;-53
2023/02/04 05:12:48;;;;;;;8.02;2.70;;;8.80;66.70;;;4.07;100.00;96963.97;4924602;29;20035;-53
2023/02/04 05:15:22;;;;;;;4.68;3.22;;;8.80;66.60;;;4.06;100.00;96963.16;4930698;29;20390;-53
2023/02/04 05:17:48;;;;;;;6.30;3.83;;;8.90;66.70;;;4.03;100.00;96966.19;4933026;28;20386;-51
2023/02/04 05:20:14;;;;;;;4.82;3.22;;;8.90;66.60;;;4.03;100.00;96960.09;4930893;29;20041;-54
2023/02/04 05:22:42;;;;;;;5.72;3.35;;;8.90;66.50;;;4.01;100.00;96970.00;4935940;28;20050;-55
2023/02/04 05:25:08;;;;;;;6.85;3.83;;;8.90;66.50;;;4.00;100.00;96977.09;4928098;28;20043;-54
2023/02/04 05:27:40;;;;;;;6.43;3.58;;;8.90;66.50;;;4.00;100.00;96971.84;4958994;28;20029;-55
2023/02/04 05:30:08;;;;;;;6.57;3.45;;;8.90;66.60;;;4.01;100.00;96964.72;4945867;28;20023;-53
2023/02/04 05:32:41;;;;;;;4.55;3.20;;;8.90;66.60;;;4.01;100.00;96956.81;4950117;28;20030;-51
2023/02/04 05:35:10;;;;;;;5.07;3.13;;;8.90;66.80;;;4.01;100.00;96951.56;4965231;28;20033;-53
2023/02/04 05:37:39;;;;;;;5.15;3.20;;;8.90;66.80;;;4.02;100.00;96969.03;4964196;28;20393;-51
2023/02/04 05:40:12;;;;;;;5.15;3.42;;;8.90;66.80;;;4.04;100.00;96953.81;4950208;28;20053;-52
2023/02/04 05:42:44;;;;;;;4.60;2.95;;;8.90;66.90;;;4.06;100.00;96957.91;4947236;28;20034;-52
2023/02/04 05:45:15;;;;;;;6.37;3.70;;;8.90;67.00;;;4.07;100.00;96963.97;4949312;28;20118;-51
2023/02/04 05:47:42;;;;;;;5.25;3.10;;;8.90;66.90;;;4.10;100.00;96968.88;4947166;28;20057;-53
2023/02/04 05:50:14;;;;;;;5.45;3.50;;;8.90;66.90;;;4.06;100.00;96965.00;4948855;28;20030;-52
2023/02/04 05:52:40;;;;;;;4.18;3.58;;;8.90;67.00;;;4.09;100.00;96985.72;4948290;28;20034;-53
2023/02/04 05:55:11;;;;;;;6.05;2.92;;;8.90;66.90;;;4.09;100.00;96977.81;4949121;28;20031;-55
2023/02/04 05:57:43;;;;;;;8.90;3.47;;;8.90;66.90;;;4.11;100.00;96963.44;4941593;28;20379;-55
2023/02/04 06:00:12;;;;;;;7.38;3.35;;;8.90;67.00;;;4.11;100.00;96965.25;4947572;29;20042;-54
2023/02/04 06:02:38;;;;;;;4.53;3.40;;;8.90;66.90;;;4.12;100.00;96980.06;4965790;28;20038;-51
2023/02/04 06:05:23;;;;;;;4.78;3.20;;;8.90;66.90;;;4.12;100.00;96982.69;4952690;28;20072;-51
2023/02/04 06:07:49;;;;;;;3.65;2.90;;;8.90;67.00;;;4.13;100.00;96979.03;4953074;28;20023;-53
2023/02/04 06:10:15;;;;;;;3.97;3.03;;;8.90;67.00;;;4.12;100.00;96986.16;4952867;28;20385;-51
2023/02/04 06:12:41;;;;;;;5.43;3.20;;;8.90;67.00;;;4.13;100.00;96979.84;4951279;28;20076;-55
2023/02/04 06:15:15;;;;;;;6.47;3.28;;;8.90;67.00;;;4.14;100.00;96976.25;4968551;28;20494;-53
2023/02/04 06:17:44;;;;;;;3.65;2.72;;;8.90;67.00;;;4.15;100.00;96977.03;4936543;28;20455;-52
2023/02/04 06:20:14;;;;;;;4.82;3.00;;;8.90;67.10;;;4.12;100.00;96988.78;4952510;28;20118;-51
2023/02/04 06:22:46;;;;;;;5.70;3.30;;;8.90;67.10;;;4.12;100.00;96991.41;4953269;28;20122;-51
2023/02/04 06:25:15;;;;;;;4.72;2.75;;;8.90;67.10;;;4.11;100.00;96997.72;4960993;28;20129;-52
2023/02/04 06:27:41;;;;;;;5.68;3.20;;;8.90;67.20;;;4.13;100.00;96993.03;4963113;28;20061;-52
2023/02/04 06:30:15;;;;;;;6.10;3.30;;;8.90;67.20;;;4.12;100.00;96995.88;4951475;28;20060;-51
2023/02/04 06:32:41;;;;;;;6.18;2.95;;;8.90;67.30;;;4.12;100.00;96983.50;4967607;28;20113;-51
2023/02/04 06:35:08;;;;;;;7.57;3.35;;;8.90;67.30;;;4.14;100.00;96986.78;4953651;28;20690;-51
2023/02/04 06:37:35;;;;;;;8.23;3.88;;;8.90;67.20;;;4.12;100.00;96980.88;4951481;28;20097;-51
2023/02/04 06:40:01;;;;;;;6.30;4.07;;;8.90;67.20;;;4.11;100.00;96984.53;4953424;28;20137;-52
2023/02/04 06:42:30;;;;;;;8.38;4.32;;;8.90;67.30;;;4.07;100.00;96985.06;4951310;28;20106;-54
2023/02/04 06:44:58;;;;;;;7.00;3.58;;;8.90;67.30;;;4.08;100.00;96986.72;4936521;28;20042;-52
2023/02/04 06:47:30;;;;;;;7.25;4.38;;;8.90;67.30;;;4.11;100.00;96989.00;4968288;28;20015;-55
2023/02/04 06:49:59;;;;;;;9.97;4.47;;;8.90;67.40;;;4.08;100.00;96982.25;4933156;28;20474;-55
2023/02/04 06:52:25;;;;;;;7.85;4.80;;;8.90;67.30;;;4.11;100.00;96981.06;4942622;28;20031;-56
2023/02/04 06:54:50;;;;;;;8.93;5.00;;;8.90;67.40;;;4.10;100.00;96990.78;4949125;28;20072;-51
2023/02/04 06:57:22;;;;;;;11.50;5.47;;;8.90;67.40;;;4.03;100.00;96983.84;4932382;29;20031;-53
2023/02/04 06:59:48;;;;;;;10.43;5.78;;;8.90;67.50;;;4.04;100.00;96982.81;4948774;28;20581;-52
2023/02/04 07:02:14;;;;;;;9.88;5.63;;;8.90;67.40;;;4.06;100.00;96986.09;4949743;28;20037;-54
2023/02/04 07:04:42;;;;;;;14.25;7.38;;;8.90;67.50;;;4.07;100.00;96985.88;4966976;28;20122;-51
2023/02/04 07:07:10;;;;;;;12.15;7.50;;;8.90;67.50;;;4.08;100.00;96989.38;4950230;28;20023;-56
2023/02/04 07:09:39;;;;;;;14.18;7.85;;;8.90;67.60;;;4.07;100.00;96993.00;4963834;28;20492;-56
2023/02/04 07:12:06;;;;;;;11.70;5.95;;;8.90;67.60;;;4.07;100.00;96988.53;4950595;28;20042;-56
2023/02/04 07:14:34;;;;;;;8.77;5.38;;;8.90;67.60;;;4.10;100.00;97000.53;4966703;28;20085;-55
2023/02/04 07:17:00;;;;;;;7.35;4.82;;;8.90;67.60;;;4.08;100.00;97002.56;4951951;28;20035;-55
2023/02/04 07:19:26;;;;;;;8.18;4.78;;;9.00;67.60;;;4.07;100.00;97008.81;4966671;28;20027;-55
2023/02/04 07:21:55;;;;;;;8.95;4.85;;;9.00;67.60;;;4.07;100.00;97011.44;4951346;28;20101;-52
2023/02/04 07:24:22;;;;;;;11.75;5.78;;;9.00;67.50;;;4.07;100.00;97009.63;4951367;28;20046;-52
2023/02/04 07:26:49;;;;;;;6.63;4.97;;;9.00;67.50;;;4.07;100.00;97008.81;4934860;28;20446;-53
2023/02/04 07:29:15;;;;;;;8.18;4.82;;;9.10;67.50;;;4.11;100.00;97018.00;4934847;28;20022;-55
2023/02/04 07:31:41;;;;;;;9.88;4.80;;;9.10;67.50;;;4.11;100.00;97018.00;4949858;28;20485;-54
2023/02/04 07:34:06;;;;;;;7.57;4.85;;;9.10;67.50;;;4.11;100.00;97015.34;4934521;28;20389;-56
2023/02/04 07:36:32;;;;;;;7.40;4.85;;;9.10;67.50;;;4.07;100.00;97017.53;4933628;28;20042;-55
2023/02/04 07:38:58;;;;;;;8.65;5.45;;;9.10;67.40;;;4.10;100.00;97009.25;4951978;28;20038;-52
2023/02/04 07:41:24;;;;;;;10.27;5.38;;;9.20;67.50;;;4.15;100.00;97011.34;4951464;28;20031;-54
2023/02/04 07:43:50;;;;;;;9.93;4.72;;;9.20;67.50;;;4.20;100.00;97022.16;4950182;28;20061;-54
2023/02/04 07:46:21;;;;;;;8.18;5.00;;;9.20;67.50;;;4.20;100.00;97029.22;4950378;28;20030;-56
2023/02/04 07:49:08;;;;;;;12.07;5.38;;;9.20;67.60;;;4.20;100.00;97021.31;4950906;28;20121;-57
2023/02/04 07:51:37;;;;;;;6.97;4.63;;;9.20;67.60;;;4.24;100.00;97027.84;4942967;28;20046;-54
2023/02/04 07:54:03;;;;;;;9.63;4.90;;;9.20;67.60;;;4.25;100.00;97017.09;4950765;28;20074;-54
2023/02/04 07:56:35;;;;;;;21.05;5.72;;;9.20;67.60;;;4.26;100.00;97021.38;4951604;28;20085;-56
2023/02/04 07:59:01;;;;;;;7.05;4.40;;;9.20;67.70;;;4.29;100.00;97023.63;4951500;28;20034;-53
2023/02/04 08:01:29;;;;;;;8.35;4.22;;;9.20;67.70;;;4.31;100.00;97023.44;4938459;28;20030;-56
2023/02/04 08:03:58;;;;;;;9.95;4.65;;;9.30;67.70;;;4.34;100.00;97025.72;4944581;28;20109;-53
2023/02/04 08:06:30;;;;;;;8.77;4.30;;;9.30;67.70;;;4.31;100.00;97024.25;4949778;28;20045;-56
2023/02/04 08:09:02;;;;;;;6.33;4.43;;;9.30;67.80;;;4.31;100.00;97024.25;4952346;28;20025;-54
2023/02/04 08:11:28;;;;;;;8.70;4.47;;;9.40;67.80;;;4.33;100.00;97024.88;4951069;28;20117;-53
2023/02/04 08:13:57;;;;;;;7.13;4.22;;;9.30;67.60;;;4.35;100.00;97017.59;4951478;28;20601;-54
2023/02/04 08:16:22;;;;;;;7.10;4.45;;;9.40;67.70;;;4.35;100.00;97028.13;4952188;28;20029;-53
2023/02/04 08:18:54;;;;;;;8.20;4.60;;;9.50;67.70;;;4.40;100.00;97032.88;4951288;28;20031;-57
2023/02/04 08:21:23;;;;;;;6.18;3.75;;;9.50;67.70;;;4.42;100.00;97038.78;4955148;28;20030;-52
2023/02/04 08:23:49;;;;;;;6.18;4.20;;;9.50;67.60;;;4.46;100.00;97029.47;4951819;23;20066;-52
2023/02/04 08:26:15;;;;;;;10.07;4.60;;;9.60;67.60;;;4.48;100.00;97048.56;4986765;28;20037;-52
2023/02/04 08:28:44;;;;;;;7.43;3.67;;;9.60;67.60;;;4.51;100.00;97052.63;4999377;28;20037;-53
2023/02/04 08:31:16;;;;;;;6.13;4.05;;;9.60;67.50;;;4.54;100.00;97052.25;5006400;28;20086;-54
2023/02/04 08:33:42;;;;;;;5.88;3.47;;;9.60;67.60;;;4.57;100.00;97050.03;5014881;28;20369;-50
2023/02/04 08:36:08;;;;;;;9.57;4.47;;;9.70;67.50;;;4.58;100.00;97048.25;4985331;28;20060;-53
2023/02/04 08:38:37;;;;;;;6.80;4.47;;;9.70;67.50;;;4.57;100.00;97049.22;4970760;28;20022;-52
2023/02/04 08:41:03;;;;;;;6.13;4.30;;;9.70;67.50;;;4.60;100.00;97049.66;4988430;28;20029;-51
2023/02/04 08:43:29;;;;;;;5.15;3.35;;;9.80;67.50;;;4.67;100.00;97054.19;4950116;28;22448;-55
2023/02/04 08:45:55;;;;;;;9.00;4.55;;;9.80;67.40;;;4.69;100.00;97058.25;4982754;28;20440;-54
2023/02/04 08:48:21;;;;;;;11.00;4.72;;;9.80;67.40;;;4.70;100.00;97046.72;4962980;28;20030;-52
2023/02/04 08:50:47;;;;;;;8.52;4.53;;;9.80;67.40;;;4.76;100.00;97045.91;4967143;28;20081;-52
2023/02/04 08:53:12;;;;;;;6.78;4.22;;;9.90;67.50;;;4.78;100.00;97051.84;4965182;28;20453;-51
2023/02/04 08:55:40;;;;;;;9.70;4.32;;;9.90;67.40;;;4.81;100.00;97051.44;4984183;28;20113;-55
2023/02/04 08:58:06;;;;;;;6.35;4.30;;;10.00;67.50;;;4.85;100.00;97047.41;4968952;28;20041;-51
2023/02/04 09:00:32;;;;;;;9.10;4.47;;;10.10;67.40;;;4.89;100.00;97045.22;4949538;28;20049;-56
2023/02/04 09:02:58;;;;;;;7.10;4.32;;;10.10;67.30;;;4.96;100.00;97046.09;4957559;28;20501;-54
2023/02/04 09:05:24;;;;;;;6.13;4.32;;;10.20;67.30;;;5.06;100.00;97051.81;4966335;28;20057;-51
2023/02/04 09:07:50;;;;;;;9.63;4.63;;;10.30;67.40;;;5.12;100.00;97052.88;4964011;28;20022;-55
2023/02/04 09:10:19;;;;;;;6.10;4.28;;;10.30;67.30;;;5.19;100.00;97056.38;4969790;28;20038;-54
2023/02/04 09:12:48;;;;;;;7.32;3.53;;;10.40;67.20;;;5.25;100.00;97060.88;4952205;28;20050;-51
2023/02/04 09:15:24;;;;;;;6.15;3.95;;;10.50;67.20;;;5.22;100.00;97058.63;4984370;28;20026;-51
2023/02/04 09:18:03;;;;;;;16.23;7.90;;;10.50;67.10;;;5.22;100.00;97060.47;4951774;28;20030;-53
2023/02/04 09:20:29;;;;;;;16.83;7.30;;;10.60;67.00;;;5.29;100.00;97072.69;4964286;28;20019;-50
2023/02/04 09:22:58;;;;;;;21.60;10.88;;;10.70;66.80;;;5.31;100.00;97068.03;4963585;28;20422;-54
2023/02/04 09:25:23;;;;;;;18.08;11.60;;;10.70;66.70;;;5.38;100.00;97056.69;4961408;28;20053;-52
2023/02/04 09:27:49;;;;;;;14.68;9.15;;;10.70;66.60;;;5.43;100.00;97056.91;4949670;28;20061;-53
2023/02/04 09:30:24;;;;;;;13.63;7.60;;;10.70;66.60;;;5.49;100.00;97053.50;4960315;28;20652;-52
2023/02/04 09:32:50;;;;;;;8.07;4.75;;;10.80;66.70;;;5.52;100.00;97056.56;4958123;28;20038;-54
2023/02/04 09:35:16;;;;;;;8.52;5.45;;;10.90;66.60;;;5.56;100.00;97063.06;4952220;28;20286;-53
2023/02/04 09:37:42;;;;;;;6.88;4.40;;;10.90;66.50;;;5.55;100.00;97072.03;4959204;28;20033;-51
2023/02/04 09:40:19;;;;;;;9.10;4.82;;;10.90;66.40;;;5.55;100.00;97068.56;4953192;28;20018;-56
2023/02/04 09:42:50;;;;;;;8.25;4.65;;;11.00;66.30;;;5.58;100.00;97070.81;4972656;28;20496;-53
2023/02/04 09:45:26;;;;;;;7.43;4.55;;;11.00;66.30;;;5.67;100.00;97072.28;4956081;28;20037;-55
2023/02/04 09:48:01;;;;;;;8.70;4.55;;;11.00;66.10;;;5.71;100.00;97075.34;4952151;28;20026;-55
2023/02/04 09:50:33;;;;;;;7.85;4.93;;;11.10;66.10;;;5.75;100.00;97080.03;4950397;28;20034;-55
2023/02/04 09:53:06;;;;;;;9.15;4.40;;;11.20;66.10;;;5.79;100.00;97078.63;4964782;28;20026;-54
2023/02/04 09:55:42;;;;;;;14.25;4.93;;;11.30;66.00;;;5.88;100.00;97076.63;4949366;28;20516;-52
2023/02/04 09:58:22;;;;;;;8.48;4.55;;;11.40;65.90;;;5.91;100.00;97078.88;4978733;28;20134;-55
2023/02/04 10:01:04;;;;;;;5.43;3.78;;;11.50;65.80;;;5.98;100.00;97081.56;4957751;28;20520;-51
2023/02/04 10:03:30;;;;;;;4.28;3.88;;;11.60;65.60;;;6.02;100.00;97083.63;4960870;28;20033;-54
2023/02/04 10:05:56;;;;;;;5.53;3.97;;;11.60;65.30;;;6.14;100.00;97083.88;4935684;28;20053;-52
2023/02/04 10:08:33;;;;;;;6.82;4.15;;;11.70;65.30;;;6.24;100.00;97084.28;4973401;28;20467;-56
2023/02/04 10:11:00;;;;;;;4.40;4.00;;;11.80;65.30;;;6.26;99.47;97090.19;4943197;28;20041;-53
2023/02/04 10:13:53;;;;;;;5.05;3.97;;;11.90;65.10;;;6.28;99.13;97087.34;4954686;28;20458;-57
2023/02/04 10:16:32;;;;;;;7.63;4.70;;;12.00;65.00;;;6.29;99.78;97093.47;4953306;28;20099;-57
2023/02/04 10:19:14;;;;;;;8.20;4.75;;;11.90;64.80;;;6.36;100.00;97083.69;4956509;28;20025;-55
2023/02/04 10:21:44;;;;;;;9.50;5.50;;;12.00;64.80;;;6.31;100.00;97083.50;4958637;28;20033;-56
2023/02/04 10:24:33;;;;;;;7.88;5.45;;;12.00;64.70;;;6.41;98.91;97095.31;4951718;28;20389;-55
2023/02/04 10:27:14;;;;;;;8.98;4.70;;;12.00;64.70;;;6.46;99.14;97105.31;4963098;28;20033;-52
2023/02/04 10:29:42;;;;;;;7.47;5.07;;;12.00;64.80;;;6.53;99.17;97107.97;4956280;28;20541;-52
2023/02/04 10:32:32;;;;;;;6.80;4.57;;;11.90;64.80;;;6.49;98.99;97100.44;4965908;28;20034;-54
2023/02/04 10:35:02;;;;;;;6.57;5.00;;;11.90;64.90;;;6.47;99.42;97101.63;4951202;28;20041;-55
2023/02/04 10:37:29;;;;;;;7.53;4.90;;;11.90;64.90;;;6.47;99.07;97093.69;4966831;28;20038;-54